createdAt,value
2019-02-04T00:02:09.601Z,65.80
2019-02-04T00:04:38.748Z,64.44
2019-02-04T00:07:07.898Z,65.34
2019-02-04T00:09:37.293Z,64.33
2019-02-04T00:12:07.475Z,63.51
2019-02-04T00:14:40.888Z,65.24
2019-02-04T00:17:16.143Z,65.65
2019-02-04T00:19:49.316Z,66.60
2019-02-04T00:22:18.537Z,65.26
2019-02-04T00:24:47.749Z,66.74
2019-02-04T00:27:20.267Z,66.56
2019-02-04T00:29:52.491Z,67.21
2019-02-04T00:32:21.601Z,67.61
2019-02-04T00:34:50.743Z,64.99
2019-02-04T00:37:20.981Z,64.48
2019-02-04T00:39:54.162Z,65.45
2019-02-04T00:42:24.344Z,62.97
2019-02-04T00:44:53.514Z,62.73
2019-02-04T00:47:22.994Z,62.44
2019-02-04T00:49:54.451Z,61.09
2019-02-04T00:52:25.117Z,62.47
2019-02-04T00:54:55.613Z,62.08
2019-02-04T00:57:25.067Z,60.77
2019-02-04T00:59:54.222Z,60.53
2019-02-04T01:02:24.960Z,62.89
2019-02-04T01:04:54.168Z,61.36
2019-02-04T01:07:28.504Z,63.26
2019-02-04T01:09:57.744Z,62.89
2019-02-04T01:12:31.545Z,60.95
2019-02-04T01:15:02.284Z,61.25
2019-02-04T01:17:35.737Z,62.47
2019-02-04T01:20:26.758Z,65.32
2019-02-04T01:22:59.512Z,64.30
2019-02-04T01:25:37.805Z,64.24
2019-02-04T01:28:07.041Z,65.02
2019-02-04T01:30:37.747Z,63.43
2019-02-04T01:33:06.835Z,64.52
2019-02-04T01:35:39.037Z,64.33
2019-02-04T01:38:18.086Z,64.42
2019-02-04T01:40:47.262Z,64.34
2019-02-04T01:43:16.379Z,62.91
2019-02-04T01:45:54.014Z,62.97
2019-02-04T01:48:26.727Z,62.06
2019-02-04T01:50:55.804Z,60.41
2019-02-04T01:53:26.003Z,60.11
2019-02-04T01:55:56.381Z,61.43
2019-02-04T01:58:25.556Z,60.73
2019-02-04T02:00:57.809Z,62.19
2019-02-04T02:03:27.025Z,63.29
2019-02-04T02:05:56.163Z,63.28
2019-02-04T02:08:25.448Z,63.38
2019-02-04T02:11:03.558Z,62.25
2019-02-04T02:13:32.613Z,62.69
2019-02-04T02:16:05.102Z,60.94
2019-02-04T02:18:41.237Z,62.52
2019-02-04T02:21:11.399Z,62.82
2019-02-04T02:23:41.333Z,63.48
2019-02-04T02:26:11.949Z,63.77
2019-02-04T02:28:41.271Z,64.55
2019-02-04T02:31:10.792Z,65.44
2019-02-04T02:33:41.424Z,64.42
2019-02-04T02:36:12.170Z,62.79
2019-02-04T02:38:43.798Z,63.23
2019-02-04T02:41:13.714Z,64.78
2019-02-04T02:43:43.508Z,62.53
2019-02-04T02:46:13.825Z,61.79
2019-02-04T02:48:43.331Z,64.24
2019-02-04T02:51:15.424Z,65.84
2019-02-04T02:53:45.834Z,64.90
2019-02-04T02:56:16.624Z,63.36
2019-02-04T02:58:46.182Z,62.88
2019-02-04T03:01:15.320Z,62.49
2019-02-04T03:03:44.410Z,61.63
2019-02-04T03:06:13.886Z,61.36
2019-02-04T03:08:43.005Z,63.53
2019-02-04T03:11:12.304Z,64.14
2019-02-04T03:13:44.477Z,63.62
2019-02-04T03:16:16.795Z,63.73
2019-02-04T03:18:45.913Z,63.41
2019-02-04T03:21:23.134Z,63.96
2019-02-04T03:23:49.284Z,63.35
2019-02-04T03:26:19.224Z,61.50
2019-02-04T03:28:50.487Z,60.43
2019-02-04T03:31:22.124Z,61.72
2019-02-04T03:33:52.448Z,63.27
2019-02-04T03:36:21.671Z,65.18
2019-02-04T03:39:01.811Z,63.42
2019-02-04T03:41:34.712Z,63.18
2019-02-04T03:44:03.815Z,63.60
2019-02-04T03:46:32.940Z,65.53
2019-02-04T03:49:02.055Z,65.62
2019-02-04T03:51:31.308Z,66.65
2019-02-04T03:54:02.236Z,66.52
2019-02-04T03:56:31.764Z,66.99
2019-02-04T03:59:05.817Z,66.97
2019-02-04T04:01:35.239Z,66.28
2019-02-04T04:04:06.017Z,64.98
2019-02-04T04:06:37.997Z,65.66
2019-02-04T04:09:08.576Z,66.60
2019-02-04T04:11:43.228Z,66.38
2019-02-04T04:14:14.607Z,66.22
2019-02-04T04:16:43.719Z,66.08
2019-02-04T04:19:13.245Z,66.17
2019-02-04T04:21:43.992Z,66.89
2019-02-04T04:24:13.473Z,65.79
2019-02-04T04:26:42.589Z,67.05
2019-02-04T04:29:11.735Z,66.63
2019-02-04T04:31:42.952Z,64.88
2019-02-04T04:34:12.202Z,65.81
2019-02-04T04:36:48.718Z,64.50
2019-02-04T04:39:28.314Z,63.19
2019-02-04T04:41:57.416Z,64.01
2019-02-04T04:44:27.402Z,63.59
2019-02-04T04:47:02.464Z,63.95
2019-02-04T04:49:31.896Z,64.56
2019-02-04T04:52:05.890Z,63.87
2019-02-04T04:54:43.170Z,62.58
2019-02-04T04:57:12.743Z,66.00
2019-02-04T04:59:43.659Z,65.89
2019-02-04T05:02:14.493Z,65.19
2019-02-04T05:04:45.130Z,64.70
2019-02-04T05:07:14.531Z,64.55
2019-02-04T05:10:02.555Z,63.71
2019-02-04T05:12:31.712Z,61.39
2019-02-04T05:15:01.195Z,61.48
2019-02-04T05:17:30.535Z,63.82
2019-02-04T05:19:59.746Z,63.72
2019-02-04T05:22:29.207Z,63.02
2019-02-04T05:24:58.679Z,62.61
2019-02-04T05:27:32.636Z,61.39
2019-02-04T05:30:01.879Z,61.28
2019-02-04T05:32:32.453Z,64.27
2019-02-04T05:35:03.321Z,60.79
2019-02-04T05:37:35.555Z,63.40
2019-02-04T05:40:08.310Z,63.21
2019-02-04T05:42:42.284Z,63.60
2019-02-04T05:45:16.542Z,62.74
2019-02-04T05:47:47.114Z,63.81
2019-02-04T05:50:18.539Z,64.64
2019-02-04T05:52:48.073Z,65.40
2019-02-04T05:55:30.431Z,65.25
2019-02-04T05:57:59.745Z,65.47
2019-02-04T06:00:46.505Z,64.51
2019-02-04T06:03:15.712Z,64.43
2019-02-04T06:05:45.075Z,63.83
2019-02-04T06:08:19.101Z,61.06
2019-02-04T06:10:48.270Z,61.77
2019-02-04T06:13:17.387Z,60.36
2019-02-04T06:15:46.577Z,61.32
2019-02-04T06:18:19.367Z,65.85
2019-02-04T06:20:51.667Z,63.09
2019-02-04T06:23:23.682Z,62.55
2019-02-04T06:25:53.078Z,63.02
2019-02-04T06:28:24.816Z,63.45
2019-02-04T06:30:55.397Z,65.10
2019-02-04T06:33:26.311Z,66.20
2019-02-04T06:35:57.615Z,64.70
2019-02-04T06:38:27.184Z,64.36
2019-02-04T06:40:58.154Z,62.64
2019-02-04T06:43:28.958Z,63.33
2019-02-04T06:46:04.047Z,63.05
2019-02-04T06:48:36.370Z,62.82
2019-02-04T06:51:07.948Z,62.16
2019-02-04T06:53:37.158Z,61.63
2019-02-04T06:56:06.736Z,61.69
2019-02-04T06:58:37.755Z,64.32
2019-02-04T07:01:06.936Z,61.71
2019-02-04T07:03:36.270Z,59.99
2019-02-04T07:06:06.378Z,61.84
2019-02-04T07:08:35.730Z,62.47
2019-02-04T07:11:08.766Z,63.85
2019-02-04T07:13:42.721Z,65.50
2019-02-04T07:16:14.818Z,64.81
2019-02-04T07:18:46.903Z,61.80
2019-02-04T07:21:16.048Z,61.46
2019-02-04T07:23:46.082Z,60.91
2019-02-04T07:26:15.255Z,63.01
2019-02-04T07:28:44.403Z,61.61
2019-02-04T07:31:13.534Z,62.35
2019-02-04T07:33:43.662Z,62.20
2019-02-04T07:36:17.010Z,59.54
2019-02-04T07:38:48.483Z,58.89
2019-02-04T07:41:18.968Z,58.16
2019-02-04T07:43:48.103Z,58.76
2019-02-04T07:46:21.239Z,58.03
2019-02-04T07:48:53.424Z,58.87
2019-02-04T07:51:31.789Z,57.91
2019-02-04T07:54:02.135Z,57.35
2019-02-04T07:56:33.467Z,57.46
2019-02-04T07:59:05.125Z,57.36
2019-02-04T08:01:36.424Z,57.61
2019-02-04T08:04:06.617Z,57.80
2019-02-04T08:06:38.216Z,58.73
2019-02-04T08:09:10.947Z,59.81
2019-02-04T08:11:40.389Z,61.33
2019-02-04T08:14:11.920Z,59.79
2019-02-04T08:16:43.471Z,62.33
2019-02-04T08:19:12.582Z,62.28
2019-02-04T08:21:45.784Z,60.73
2019-02-04T08:24:15.545Z,59.84
2019-02-04T08:26:48.096Z,61.77
2019-02-04T08:29:17.596Z,61.25
2019-02-04T08:31:49.838Z,63.50
2019-02-04T08:34:18.967Z,62.32
2019-02-04T08:36:48.153Z,62.56
2019-02-04T08:39:18.269Z,61.76
2019-02-04T08:41:48.176Z,60.49
2019-02-04T08:44:18.227Z,61.11
2019-02-04T08:46:51.556Z,61.02
2019-02-04T08:49:24.380Z,61.25
2019-02-04T08:51:53.728Z,61.88
2019-02-04T08:54:27.442Z,60.93
2019-02-04T08:56:56.985Z,60.41
2019-02-04T08:59:31.972Z,61.42
2019-02-04T09:02:01.241Z,60.01
2019-02-04T09:04:36.959Z,58.98
2019-02-04T09:07:12.857Z,59.87
2019-02-04T09:09:45.995Z,58.92
2019-02-04T09:12:15.262Z,59.96
2019-02-04T09:14:46.581Z,59.80
2019-02-04T09:17:18.170Z,60.51
2019-02-04T09:19:48.995Z,59.52
2019-02-04T09:22:22.520Z,59.58
2019-02-04T09:24:51.715Z,59.82
2019-02-04T09:27:26.415Z,61.46
2019-02-04T09:29:55.860Z,61.96
2019-02-04T09:32:27.143Z,61.18
2019-02-04T09:34:57.111Z,62.00
2019-02-04T09:37:30.042Z,62.74
2019-02-04T09:40:04.673Z,62.49
2019-02-04T09:42:33.844Z,61.66
2019-02-04T09:45:06.177Z,59.92
2019-02-04T09:47:36.484Z,60.86
2019-02-04T09:50:07.450Z,60.81
2019-02-04T09:52:36.853Z,60.17
2019-02-04T09:55:11.722Z,59.92
2019-02-04T09:57:41.050Z,59.02
2019-02-04T10:00:14.746Z,59.00
2019-02-04T10:02:49.655Z,59.21
2019-02-04T10:05:27.364Z,61.19
2019-02-04T10:07:57.442Z,58.56
2019-02-04T10:10:32.577Z,59.96
2019-02-04T10:13:01.716Z,59.56
2019-02-04T10:15:33.247Z,59.15
2019-02-04T10:18:03.710Z,58.93
2019-02-04T10:20:34.646Z,56.85
2019-02-04T10:23:05.434Z,58.37
2019-02-04T10:25:42.104Z,59.04
2019-02-04T10:28:16.057Z,59.74
2019-02-04T10:30:46.374Z,58.38
2019-02-04T10:33:18.918Z,55.84
2019-02-04T10:35:50.565Z,56.53
2019-02-04T10:38:20.764Z,55.29
2019-02-04T10:40:50.375Z,54.28
2019-02-04T10:43:20.735Z,54.75
2019-02-04T10:45:56.749Z,56.25
2019-02-04T10:48:32.695Z,53.74
2019-02-04T10:51:04.115Z,52.84
2019-02-04T10:53:35.007Z,55.60
2019-02-04T10:56:16.365Z,52.74
2019-02-04T10:58:49.797Z,50.48
2019-02-04T11:01:19.405Z,52.13
2019-02-04T11:03:48.800Z,51.97
2019-02-04T11:06:27.315Z,52.45
2019-02-04T11:08:56.469Z,48.94
2019-02-04T11:11:27.483Z,50.41
2019-02-04T11:13:58.713Z,49.49
2019-02-04T11:16:29.268Z,51.00
2019-02-04T11:18:58.619Z,52.90
2019-02-04T11:21:41.483Z,54.51
2019-02-04T11:24:10.751Z,53.47
2019-02-04T11:26:43.702Z,51.72
2019-02-04T11:29:12.857Z,52.12
2019-02-04T11:31:42.556Z,51.84
2019-02-04T11:34:11.829Z,47.77
2019-02-04T11:36:47.041Z,47.05
2019-02-04T11:39:12.130Z,46.97
2019-02-04T11:41:44.262Z,49.70
2019-02-04T11:44:13.957Z,48.96
2019-02-04T11:46:46.120Z,47.83
2019-02-04T11:49:15.237Z,49.29
2019-02-04T11:51:44.537Z,49.27
2019-02-04T11:54:13.802Z,49.04
2019-02-04T11:56:44.769Z,49.13
2019-02-04T11:59:17.229Z,49.13
2019-02-04T12:01:47.901Z,48.85
2019-02-04T12:04:19.047Z,48.11
2019-02-04T12:06:50.584Z,48.50
2019-02-04T12:09:20.190Z,48.03
2019-02-04T12:11:51.178Z,49.26
2019-02-04T12:14:22.586Z,49.99
2019-02-04T12:17:13.450Z,50.29
2019-02-04T12:19:43.512Z,50.28
2019-02-04T12:22:12.978Z,48.79
2019-02-04T12:24:42.437Z,49.33
2019-02-04T12:27:11.940Z,48.87
2019-02-04T12:29:45.105Z,49.95
2019-02-04T12:32:19.131Z,48.19
2019-02-04T12:34:48.586Z,48.82
2019-02-04T12:37:21.516Z,49.22
2019-02-04T12:39:51.801Z,49.19
2019-02-04T12:42:21.573Z,49.10
2019-02-04T12:44:51.089Z,50.26
2019-02-04T12:47:21.980Z,48.78
2019-02-04T12:49:52.314Z,49.46
2019-02-04T12:52:29.592Z,50.83
2019-02-04T12:54:58.962Z,48.55
2019-02-04T12:57:29.394Z,49.08
2019-02-04T13:00:00.487Z,49.32
2019-02-04T13:02:32.424Z,50.06
2019-02-04T13:05:04.661Z,46.90
2019-02-04T13:07:38.336Z,44.63
2019-02-04T13:13:04.103Z,47.38
2019-02-04T13:15:38.804Z,45.55
2019-02-04T13:18:14.427Z,46.09
2019-02-04T13:20:49.564Z,46.11
2019-02-04T13:23:19.034Z,45.97
2019-02-04T13:25:48.273Z,45.49
2019-02-04T13:28:19.912Z,46.97
2019-02-04T13:30:49.067Z,46.39
2019-02-04T13:33:18.815Z,45.33
2019-02-04T13:35:48.031Z,45.17
2019-02-04T13:38:18.254Z,44.45
2019-02-04T13:40:47.349Z,43.18
2019-02-04T13:43:16.871Z,43.69
2019-02-04T13:45:49.228Z,42.91
2019-02-04T13:48:18.785Z,43.69
2019-02-04T13:50:53.675Z,43.41
2019-02-04T13:53:27.189Z,42.73
2019-02-04T13:55:59.394Z,42.65
2019-02-04T13:58:28.857Z,42.78
2019-02-04T14:01:02.105Z,41.31
2019-02-04T14:03:33.248Z,42.12
2019-02-04T14:06:05.550Z,42.08
2019-02-04T14:08:34.836Z,44.20
2019-02-04T14:11:06.652Z,41.69
2019-02-04T14:13:46.197Z,42.68
2019-02-04T14:16:22.715Z,43.51
2019-02-04T14:18:52.349Z,42.67
2019-02-04T14:21:21.956Z,41.52
2019-02-04T14:23:59.499Z,41.29
2019-02-04T14:26:30.359Z,41.24
2019-02-04T14:29:00.642Z,41.82
2019-02-04T14:31:30.971Z,42.52
2019-02-04T14:34:02.581Z,41.88
2019-02-04T14:36:35.613Z,42.12
2019-02-04T14:39:10.075Z,42.40
2019-02-04T14:41:43.622Z,43.18
2019-02-04T14:44:19.747Z,43.45
2019-02-04T14:47:16.797Z,43.30
2019-02-04T14:50:07.274Z,43.06
2019-02-04T14:53:03.009Z,43.15
2019-02-04T14:55:57.063Z,42.15
2019-02-04T14:58:41.148Z,42.64
2019-02-04T15:02:09.639Z,42.70
2019-02-04T15:05:03.983Z,43.96
2019-02-04T15:08:12.134Z,44.66
2019-02-04T15:11:37.881Z,44.26
2019-02-04T15:14:24.495Z,44.48
2019-02-04T15:17:04.384Z,44.87
2019-02-04T15:20:27.474Z,45.29
2019-02-04T15:23:30.260Z,45.59
2019-02-04T15:26:38.071Z,44.98
2019-02-04T15:29:24.375Z,45.14
2019-02-04T15:32:33.515Z,46.10
2019-02-04T15:35:31.001Z,46.09
2019-02-04T15:38:14.459Z,46.32
2019-02-04T15:41:13.564Z,46.81
2019-02-04T15:43:56.622Z,47.08
2019-02-04T15:47:04.863Z,47.53
2019-02-04T15:50:26.944Z,48.48
2019-02-04T15:53:00.339Z,47.88
2019-02-04T15:55:29.659Z,48.58
2019-02-04T15:57:59.935Z,48.07
2019-02-04T16:00:28.991Z,47.71
2019-02-04T16:02:59.762Z,47.98
2019-02-04T16:05:28.903Z,49.14
2019-02-04T16:07:57.999Z,48.54
2019-02-04T16:10:28.535Z,48.30
2019-02-04T16:12:57.960Z,48.27
2019-02-04T16:15:29.991Z,48.94
2019-02-04T16:17:59.489Z,47.53
2019-02-04T16:20:28.800Z,48.97
2019-02-04T16:23:00.055Z,48.59
2019-02-04T16:25:31.621Z,49.36
2019-02-04T16:28:00.747Z,48.12
2019-02-04T16:30:31.928Z,48.45
2019-02-04T16:33:02.719Z,49.37
2019-02-04T16:35:31.820Z,49.58
2019-02-04T16:38:01.706Z,48.88
2019-02-04T16:40:31.314Z,50.16
2019-02-04T16:43:00.907Z,50.40
2019-02-04T16:45:30.098Z,50.90
2019-02-04T16:48:03.104Z,49.16
2019-02-04T16:50:32.217Z,49.63
2019-02-04T16:53:10.237Z,50.02
2019-02-04T16:55:33.725Z,49.72
2019-02-04T16:58:04.960Z,49.43
2019-02-04T17:00:40.679Z,49.30
2019-02-04T17:03:09.794Z,48.62
2019-02-04T17:05:40.259Z,48.41
2019-02-04T17:08:10.881Z,49.25
2019-02-04T17:10:39.988Z,49.88
2019-02-04T17:13:09.634Z,50.34
2019-02-04T17:15:38.828Z,51.02
2019-02-04T17:18:09.417Z,51.14
2019-02-04T17:20:41.300Z,51.75
2019-02-04T17:23:22.057Z,51.46
2019-02-04T17:25:51.166Z,52.10
2019-02-04T17:28:23.593Z,52.12
2019-02-04T17:30:54.805Z,52.30
2019-02-04T17:33:24.160Z,53.32
2019-02-04T17:35:54.552Z,54.65
2019-02-04T17:38:26.374Z,54.00
2019-02-04T17:40:56.790Z,54.07
2019-02-04T17:43:26.314Z,53.75
2019-02-04T17:45:55.460Z,54.37
2019-02-04T17:48:28.950Z,54.51
2019-02-04T17:50:58.851Z,54.32
2019-02-04T17:53:34.233Z,54.90
2019-02-04T17:56:02.648Z,56.25
2019-02-04T17:58:31.829Z,55.34
2019-02-04T18:01:03.746Z,54.36
2019-02-04T18:03:33.045Z,54.03
2019-02-04T18:06:03.588Z,53.95
2019-02-04T18:08:35.524Z,54.03
2019-02-04T18:11:10.075Z,54.79
2019-02-04T18:13:40.132Z,55.38
2019-02-04T18:16:10.127Z,56.43
2019-02-04T18:18:39.248Z,55.86
2019-02-04T18:21:08.378Z,55.12
2019-02-04T18:23:45.529Z,54.87
2019-02-04T18:26:08.453Z,53.52
2019-02-04T18:28:37.856Z,53.79
2019-02-04T18:31:16.362Z,53.97
2019-02-04T18:33:48.560Z,55.05
2019-02-04T18:36:17.711Z,54.95
2019-02-04T18:38:48.183Z,54.89
2019-02-04T18:41:17.288Z,54.85
2019-02-04T18:43:49.317Z,54.61
2019-02-04T18:46:21.398Z,54.81
2019-02-04T18:48:54.014Z,55.00
2019-02-04T18:51:23.135Z,55.12
2019-02-04T18:53:57.805Z,53.83
2019-02-04T18:56:27.219Z,54.06
2019-02-04T18:58:56.321Z,53.63
2019-02-04T19:01:25.477Z,54.39
2019-02-04T19:03:54.601Z,54.47
2019-02-04T19:06:24.671Z,54.59
2019-02-04T19:08:53.780Z,54.90
2019-02-04T19:11:26.558Z,55.32
2019-02-04T19:13:55.643Z,55.08
2019-02-04T19:16:26.623Z,54.41
2019-02-04T19:18:56.080Z,55.09
2019-02-04T19:21:25.794Z,54.73
2019-02-04T19:23:55.242Z,54.98
2019-02-04T19:26:46.174Z,54.53
2019-02-04T19:29:15.227Z,54.66
2019-02-04T19:31:46.099Z,54.47
2019-02-04T19:34:15.224Z,53.81
2019-02-04T19:36:44.428Z,55.08
2019-02-04T19:39:13.628Z,55.50
2019-02-04T19:41:42.806Z,55.78
2019-02-04T19:44:14.275Z,56.64
2019-02-04T19:46:44.683Z,57.55
2019-02-04T19:49:13.804Z,57.39
2019-02-04T19:51:44.043Z,55.69
2019-02-04T19:54:21.300Z,56.81
2019-02-04T19:56:45.114Z,56.30
2019-02-04T19:59:14.220Z,55.33
2019-02-04T20:01:45.224Z,55.86
2019-02-04T20:04:14.358Z,56.71
2019-02-04T20:06:46.572Z,57.03
2019-02-04T20:09:18.078Z,57.51
2019-02-04T20:11:47.256Z,56.93
2019-02-04T20:14:17.262Z,56.79
2019-02-04T20:16:47.167Z,57.27
2019-02-04T20:19:16.307Z,57.53
2019-02-04T20:21:47.388Z,56.83
2019-02-04T20:24:18.122Z,56.47
2019-02-04T20:26:50.671Z,57.89
2019-02-04T20:29:19.789Z,57.99
2019-02-04T20:31:49.986Z,57.39
2019-02-04T20:34:19.170Z,56.79
2019-02-04T20:36:50.415Z,57.65
2019-02-04T20:39:25.514Z,55.89
2019-02-04T20:41:56.200Z,55.81
2019-02-04T20:44:25.349Z,55.95
2019-02-04T20:46:54.473Z,56.64
2019-02-04T20:49:26.084Z,57.64
2019-02-04T20:51:58.118Z,56.89
2019-02-04T20:54:28.140Z,56.97
2019-02-04T20:56:58.883Z,57.89
2019-02-04T20:59:30.487Z,57.15
2019-02-04T21:01:59.557Z,57.12
2019-02-04T21:04:29.922Z,58.18
2019-02-04T21:07:02.401Z,57.80
2019-02-04T21:09:31.803Z,57.13
2019-02-04T21:12:06.100Z,56.01
2019-02-04T21:14:40.803Z,56.18
2019-02-04T21:17:13.674Z,56.46
2019-02-04T21:19:44.181Z,56.62
2019-02-04T21:22:13.831Z,56.22
2019-02-04T21:24:43.158Z,56.37
2019-02-04T21:27:13.985Z,56.57
2019-02-04T21:29:46.220Z,57.35
2019-02-04T21:32:21.607Z,56.70
2019-02-04T21:34:56.147Z,57.46
2019-02-04T21:37:25.284Z,57.76
2019-02-04T21:39:54.778Z,58.05
2019-02-04T21:42:27.005Z,58.05
2019-02-04T21:45:05.310Z,57.68
2019-02-04T21:47:37.523Z,58.53
2019-02-04T21:50:13.291Z,59.92
2019-02-04T21:52:46.617Z,61.46
2019-02-04T21:55:19.169Z,60.28
2019-02-04T21:57:52.812Z,61.67
2019-02-04T22:00:24.278Z,61.72
2019-02-04T22:02:54.313Z,61.61
2019-02-04T22:05:25.419Z,61.99
2019-02-04T22:07:56.975Z,61.32
2019-02-04T22:10:32.098Z,62.31
2019-02-04T22:13:02.624Z,63.12
2019-02-04T22:15:34.846Z,63.85
2019-02-04T22:18:07.600Z,63.49
2019-02-04T22:20:37.291Z,63.38
2019-02-04T22:23:06.426Z,62.68
2019-02-04T22:25:37.020Z,62.38
2019-02-04T22:28:06.578Z,63.04
2019-02-04T22:30:35.800Z,64.08
2019-02-04T22:33:14.506Z,61.99
2019-02-04T22:35:43.892Z,62.87
2019-02-04T22:38:13.012Z,63.44
2019-02-04T22:40:46.272Z,63.61
2019-02-04T22:43:20.586Z,63.80
2019-02-04T22:45:53.928Z,64.63
2019-02-04T22:48:25.040Z,63.04
2019-02-04T22:50:54.162Z,64.51
2019-02-04T22:53:23.318Z,64.31
2019-02-04T22:55:54.872Z,64.56
2019-02-04T23:01:44.538Z,63.78
2019-02-04T23:04:14.642Z,63.77
2019-02-04T23:06:46.997Z,62.15
2019-02-04T23:09:18.382Z,63.01
2019-02-04T23:11:47.568Z,64.08
2019-02-04T23:14:16.992Z,64.28
2019-02-04T23:16:47.135Z,65.29
2019-02-04T23:19:16.270Z,66.13
2019-02-04T23:21:45.459Z,66.57
2019-02-04T23:24:17.667Z,65.38
2019-02-04T23:26:49.940Z,65.76
2019-02-04T23:29:21.196Z,66.05
2019-02-04T23:31:54.495Z,66.31
2019-02-04T23:34:24.522Z,66.51
2019-02-04T23:36:57.596Z,67.23
2019-02-04T23:39:28.285Z,66.51
2019-02-04T23:41:59.223Z,66.90
2019-02-04T23:44:28.370Z,65.82
2019-02-04T23:46:57.519Z,66.96
2019-02-04T23:49:28.050Z,66.59
2019-02-04T23:51:59.493Z,66.11
2019-02-04T23:54:34.658Z,65.75
2019-02-04T23:57:04.139Z,66.44
2019-02-04T23:59:33.307Z,66.03
